createdAt,value
2022-07-27T00:02:21.319Z,4.10
2022-07-27T00:04:52.025Z,4.60
2022-07-27T00:10:05.078Z,4.13
2022-07-27T00:12:35.517Z,4.43
2022-07-27T00:18:04.063Z,3.90
2022-07-27T00:23:18.760Z,4.50
2022-07-27T00:25:49.190Z,3.60
2022-07-27T00:28:19.575Z,3.57
2022-07-27T00:30:50.038Z,3.27
2022-07-27T00:33:32.678Z,3.60
2022-07-27T00:36:03.142Z,3.50
2022-07-27T00:38:36.626Z,4.07
2022-07-27T00:43:56.883Z,3.83
2022-07-27T00:49:27.175Z,3.90
2022-07-27T00:51:58.291Z,3.97
2022-07-27T00:54:31.464Z,3.70
2022-07-27T00:57:01.907Z,3.63
2022-07-27T00:59:32.827Z,4.20
2022-07-27T01:02:03.396Z,4.03
2022-07-27T01:04:34.082Z,4.50
2022-07-27T01:07:09.005Z,4.07
2022-07-27T01:09:54.961Z,3.77
2022-07-27T01:12:27.531Z,4.37
2022-07-27T01:15:00.009Z,4.57
2022-07-27T01:17:33.883Z,4.40
2022-07-27T01:20:04.294Z,4.27
2022-07-27T01:22:37.512Z,4.20
2022-07-27T01:25:09.595Z,4.63
2022-07-27T01:30:30.722Z,4.50
2022-07-27T01:33:05.973Z,3.83
2022-07-27T01:35:36.235Z,4.43
2022-07-27T01:40:49.424Z,4.03
2022-07-27T01:46:03.782Z,4.53
2022-07-27T01:48:34.263Z,4.43
2022-07-27T01:51:04.357Z,4.57
2022-07-27T01:56:59.573Z,4.43
2022-07-27T02:02:43.431Z,4.00
2022-07-27T02:12:23.574Z,5.07
2022-07-27T02:18:28.909Z,4.80
2022-07-27T02:31:45.063Z,5.03
2022-07-27T02:34:15.341Z,5.47
2022-07-27T02:39:58.474Z,5.27
2022-07-27T02:58:40.546Z,5.00
2022-07-27T03:01:10.770Z,5.27
2022-07-27T03:03:41.786Z,4.93
2022-07-27T03:06:12.352Z,5.00
2022-07-27T03:08:42.613Z,5.00
2022-07-27T03:11:12.598Z,5.20
2022-07-27T03:13:45.515Z,5.30
2022-07-27T03:16:15.633Z,5.30
2022-07-27T03:18:45.660Z,5.37
2022-07-27T03:21:15.840Z,5.70
2022-07-27T03:23:47.115Z,6.03
2022-07-27T03:26:18.237Z,5.50
2022-07-27T03:28:50.861Z,5.70
2022-07-27T03:31:20.856Z,5.87
2022-07-27T03:33:50.886Z,5.77
2022-07-27T03:36:21.628Z,6.30
2022-07-27T03:38:51.647Z,5.70
2022-07-27T03:41:22.249Z,6.40
2022-07-27T03:43:54.814Z,5.83
2022-07-27T03:46:24.797Z,6.13
2022-07-27T03:48:55.308Z,5.83
2022-07-27T03:51:25.411Z,5.33
2022-07-27T03:53:55.378Z,5.87
2022-07-27T03:56:25.409Z,5.60
2022-07-27T03:58:58.021Z,6.50
2022-07-27T04:01:28.062Z,5.77
2022-07-27T04:03:58.098Z,5.57
2022-07-27T04:06:28.566Z,5.50
2022-07-27T04:09:08.742Z,5.70
2022-07-27T04:11:50.708Z,4.90
2022-07-27T04:14:23.865Z,6.33
2022-07-27T04:16:53.902Z,5.50
2022-07-27T04:19:23.919Z,5.33
2022-07-27T04:21:53.906Z,6.00
2022-07-27T04:24:24.362Z,6.03
2022-07-27T04:26:54.411Z,5.80
2022-07-27T04:29:27.153Z,6.50
2022-07-27T04:31:57.317Z,5.47
2022-07-27T04:34:27.358Z,6.60
2022-07-27T04:36:57.366Z,5.80
2022-07-27T04:39:27.398Z,6.67
2022-07-27T04:41:57.409Z,5.40
2022-07-27T04:44:29.995Z,6.47
2022-07-27T04:46:59.961Z,5.70
2022-07-27T04:49:30.066Z,6.10
2022-07-27T04:52:00.091Z,6.27
2022-07-27T04:54:30.103Z,6.27
2022-07-27T04:57:00.104Z,6.30
2022-07-27T04:59:32.678Z,6.30
2022-07-27T05:02:02.593Z,5.90
2022-07-27T05:04:32.646Z,7.73
2022-07-27T05:07:02.981Z,5.83
2022-07-27T05:09:33.058Z,6.40
2022-07-27T05:12:03.129Z,5.87
2022-07-27T05:14:35.751Z,7.83
2022-07-27T05:17:06.842Z,6.87
2022-07-27T05:19:40.575Z,7.83
2022-07-27T05:22:11.190Z,6.20
2022-07-27T05:24:41.350Z,6.90
2022-07-27T05:27:12.262Z,6.67
2022-07-27T05:29:44.808Z,6.23
2022-07-27T05:32:15.011Z,6.60
2022-07-27T05:34:46.158Z,6.00
2022-07-27T05:37:16.577Z,6.00
2022-07-27T05:39:46.678Z,6.10
2022-07-27T05:42:16.699Z,6.80
2022-07-27T05:44:49.277Z,7.23
2022-07-27T05:47:19.476Z,6.53
2022-07-27T05:49:49.521Z,6.30
2022-07-27T05:52:20.592Z,6.73
2022-07-27T05:54:50.992Z,6.50
2022-07-27T05:57:20.982Z,6.10
2022-07-27T05:59:55.174Z,6.73
2022-07-27T06:02:25.175Z,6.10
2022-07-27T06:04:55.166Z,6.50
2022-07-27T06:07:37.700Z,6.03
2022-07-27T06:10:09.303Z,5.90
2022-07-27T06:12:43.821Z,5.97
2022-07-27T06:15:19.760Z,6.33
2022-07-27T06:17:52.683Z,6.90
2022-07-27T06:20:24.250Z,6.40
2022-07-27T06:22:57.331Z,7.00
2022-07-27T06:25:34.175Z,5.50
2022-07-27T06:28:06.880Z,5.73
2022-07-27T06:30:39.498Z,6.90
2022-07-27T06:33:09.455Z,5.97
2022-07-27T06:35:39.724Z,5.63
2022-07-27T06:38:10.099Z,6.03
2022-07-27T06:40:40.129Z,6.03
2022-07-27T06:43:10.198Z,5.93
2022-07-27T06:45:42.735Z,6.43
2022-07-27T06:48:12.713Z,5.70
2022-07-27T06:50:42.806Z,6.10
2022-07-27T06:53:13.603Z,5.97
2022-07-27T06:55:45.633Z,6.03
2022-07-27T06:58:15.765Z,6.47
2022-07-27T07:00:49.886Z,6.63
2022-07-27T07:03:19.946Z,6.60
2022-07-27T07:05:51.057Z,5.83
2022-07-27T07:08:22.399Z,5.87
2022-07-27T07:10:53.303Z,6.63
2022-07-27T07:13:23.713Z,6.00
2022-07-27T07:15:56.602Z,6.40
2022-07-27T07:18:27.340Z,6.13
2022-07-27T07:20:57.335Z,5.90
2022-07-27T07:23:27.290Z,7.03
2022-07-27T07:25:57.405Z,6.57
2022-07-27T07:28:27.429Z,7.47
2022-07-27T07:31:00.670Z,6.50
2022-07-27T07:33:30.863Z,5.93
2022-07-27T07:36:14.261Z,6.70
2022-07-27T07:38:44.897Z,6.63
2022-07-27T07:41:15.799Z,5.63
2022-07-27T07:43:45.880Z,6.70
2022-07-27T07:46:18.727Z,7.27
2022-07-27T07:48:48.969Z,7.37
2022-07-27T07:51:19.025Z,6.53
2022-07-27T07:53:49.147Z,6.70
2022-07-27T07:56:19.367Z,6.37
2022-07-27T07:58:49.339Z,6.30
2022-07-27T08:01:22.036Z,6.30
2022-07-27T08:03:52.906Z,5.93
2022-07-27T08:06:22.958Z,5.63
2022-07-27T08:08:53.103Z,5.67
2022-07-27T08:11:23.303Z,6.90
2022-07-27T08:13:53.718Z,6.30
2022-07-27T08:16:26.395Z,6.07
2022-07-27T08:18:56.441Z,5.70
2022-07-27T08:21:26.419Z,6.40
2022-07-27T08:24:01.276Z,6.10
2022-07-27T08:26:32.890Z,5.57
2022-07-27T08:29:11.221Z,6.40
2022-07-27T08:31:52.862Z,6.30
2022-07-27T08:34:23.559Z,6.27
2022-07-27T08:36:53.575Z,6.13
2022-07-27T08:40:05.446Z,6.23
2022-07-27T08:42:14.066Z,6.27
2022-07-27T08:44:44.987Z,5.50
2022-07-27T08:47:19.066Z,6.37
2022-07-27T08:49:50.175Z,5.80
2022-07-27T08:52:22.590Z,7.50
2022-07-27T08:54:53.186Z,6.57
2022-07-27T08:57:23.366Z,5.90
2022-07-27T08:59:56.886Z,6.23
2022-07-27T09:02:29.572Z,5.70
2022-07-27T09:05:00.513Z,6.40
2022-07-27T09:07:32.183Z,7.07
2022-07-27T09:10:03.122Z,6.73
2022-07-27T09:12:35.600Z,6.00
2022-07-27T09:15:18.091Z,6.50
2022-07-27T09:17:50.731Z,6.30
2022-07-27T09:20:23.475Z,7.07
2022-07-27T09:22:55.553Z,6.03
2022-07-27T09:26:01.695Z,6.80
2022-07-27T09:28:33.191Z,7.00
2022-07-27T09:31:09.561Z,5.50
2022-07-27T09:33:51.176Z,7.23
2022-07-27T09:36:23.362Z,6.90
2022-07-27T09:39:02.023Z,6.00
2022-07-27T09:41:45.149Z,6.50
2022-07-27T09:44:34.563Z,6.60
2022-07-27T09:47:26.892Z,6.50
2022-07-27T09:50:18.070Z,6.63
2022-07-27T09:52:48.954Z,6.07
2022-07-27T09:55:23.755Z,6.30
2022-07-27T09:57:56.321Z,6.27
2022-07-27T10:00:27.945Z,6.40
2022-07-27T10:02:58.843Z,5.97
2022-07-27T10:05:32.362Z,6.30
2022-07-27T10:08:02.356Z,6.97
2022-07-27T10:10:32.618Z,6.10
2022-07-27T10:13:02.835Z,6.00
2022-07-27T10:15:33.011Z,6.40
2022-07-27T10:18:11.294Z,6.63
2022-07-27T10:20:48.532Z,6.80
2022-07-27T10:23:30.307Z,7.00
2022-07-27T10:26:21.207Z,6.53
2022-07-27T10:28:58.518Z,6.70
2022-07-27T10:31:32.039Z,7.70
2022-07-27T10:34:05.240Z,6.07
2022-07-27T10:36:54.523Z,7.00
2022-07-27T10:39:35.972Z,7.20
2022-07-27T10:42:24.535Z,6.40
2022-07-27T10:45:03.961Z,5.87
2022-07-27T10:47:38.023Z,6.10
2022-07-27T10:50:26.603Z,7.37
2022-07-27T10:53:11.423Z,5.70
2022-07-27T10:55:54.864Z,7.07
2022-07-27T10:58:48.128Z,6.67
2022-07-27T11:01:21.548Z,5.73
2022-07-27T11:03:56.201Z,5.70
2022-07-27T11:06:39.829Z,5.70
2022-07-27T11:10:02.429Z,5.60
2022-07-27T11:12:13.750Z,5.53
2022-07-27T11:14:49.558Z,5.70
2022-07-27T11:20:14.692Z,5.00
2022-07-27T11:23:26.691Z,4.90
2022-07-27T11:25:37.557Z,4.80
2022-07-27T11:28:10.043Z,4.83
2022-07-27T11:30:40.166Z,5.37
2022-07-27T11:33:10.264Z,5.37
2022-07-27T11:35:40.305Z,5.00
2022-07-27T11:38:10.355Z,5.00
2022-07-27T11:40:56.957Z,4.47
2022-07-27T11:43:43.985Z,4.47
2022-07-27T11:46:25.591Z,4.03
2022-07-27T11:49:17.570Z,4.20
2022-07-27T11:51:51.362Z,4.90
2022-07-27T11:54:25.276Z,3.60
2022-07-27T11:57:00.953Z,3.73
2022-07-27T11:59:33.399Z,3.50
2022-07-27T12:02:08.637Z,3.70
2022-07-27T12:04:41.198Z,4.00
2022-07-27T12:07:15.848Z,3.50
2022-07-27T12:09:48.986Z,3.67
2022-07-27T12:12:24.209Z,3.63
2022-07-27T12:14:57.352Z,3.93
2022-07-27T12:17:33.425Z,3.80
2022-07-27T12:20:07.243Z,4.03
2022-07-27T12:22:40.231Z,4.17
2022-07-27T12:25:16.188Z,4.10
2022-07-27T12:28:01.928Z,3.63
2022-07-27T12:30:37.441Z,3.80
2022-07-27T12:33:10.922Z,3.67
2022-07-27T12:35:48.028Z,3.90
2022-07-27T12:38:18.244Z,4.27
2022-07-27T12:40:56.746Z,3.93
2022-07-27T12:43:31.674Z,4.57
2022-07-27T12:46:02.067Z,3.03
2022-07-27T12:48:42.445Z,3.40
2022-07-27T12:51:13.918Z,3.20
2022-07-27T12:53:43.883Z,3.63
2022-07-27T12:56:13.843Z,3.40
2022-07-27T12:59:01.904Z,3.60
2022-07-27T13:01:32.010Z,3.87
2022-07-27T13:04:02.045Z,3.77
2022-07-27T13:06:33.791Z,3.60
2022-07-27T13:09:03.784Z,3.77
2022-07-27T13:11:33.847Z,3.80
2022-07-27T13:14:07.710Z,3.13
2022-07-27T13:16:37.765Z,3.57
2022-07-27T13:19:07.745Z,3.50
2022-07-27T13:21:37.856Z,3.10
2022-07-27T13:24:10.312Z,3.03
2022-07-27T13:26:41.312Z,3.20
2022-07-27T13:29:14.431Z,3.77
2022-07-27T13:31:51.092Z,3.77
2022-07-27T13:34:25.435Z,3.50
2022-07-27T13:36:55.704Z,3.13
2022-07-27T13:39:25.872Z,3.20
2022-07-27T13:41:56.239Z,3.77
2022-07-27T13:45:00.610Z,3.50
2022-07-27T13:47:18.803Z,3.93
2022-07-27T13:49:48.797Z,3.40
2022-07-27T13:52:18.756Z,2.87
2022-07-27T13:54:48.766Z,3.50
2022-07-27T13:57:18.790Z,3.50
2022-07-27T13:59:51.360Z,3.87
2022-07-27T14:02:23.247Z,3.13
2022-07-27T14:04:55.871Z,3.73
2022-07-27T14:07:28.383Z,4.20
2022-07-27T14:10:11.246Z,3.73
2022-07-27T14:12:41.426Z,3.60
2022-07-27T14:15:14.843Z,3.20
2022-07-27T14:17:44.835Z,3.60
2022-07-27T14:20:15.585Z,3.00
2022-07-27T14:22:45.648Z,3.23
2022-07-27T14:25:15.712Z,3.50
2022-07-27T14:27:46.085Z,3.43
2022-07-27T14:30:20.932Z,3.60
2022-07-27T14:32:51.422Z,3.77
2022-07-27T14:35:23.086Z,3.37
2022-07-27T14:37:53.212Z,3.10
2022-07-27T14:40:23.196Z,3.50
2022-07-27T14:42:53.391Z,3.00
2022-07-27T14:45:45.172Z,3.80
2022-07-27T14:48:25.441Z,3.60
2022-07-27T14:51:03.536Z,3.30
2022-07-27T14:53:33.832Z,3.30
2022-07-27T14:56:03.852Z,3.10
2022-07-27T14:58:33.918Z,3.33
2022-07-27T15:01:06.864Z,2.93
2022-07-27T15:03:36.993Z,3.07
2022-07-27T15:06:07.289Z,3.00
2022-07-27T15:08:37.312Z,3.03
2022-07-27T15:11:07.507Z,3.57
2022-07-27T15:13:37.451Z,2.97
2022-07-27T15:16:12.066Z,3.30
2022-07-27T15:18:42.306Z,4.00
2022-07-27T15:21:13.301Z,3.83
2022-07-27T15:23:45.841Z,3.20
2022-07-27T15:26:16.199Z,3.10
2022-07-27T15:28:46.641Z,3.70
2022-07-27T15:31:19.816Z,2.73
2022-07-27T15:33:49.809Z,2.90
2022-07-27T15:36:31.809Z,3.47
2022-07-27T15:39:04.446Z,3.90
2022-07-27T15:41:37.174Z,4.23
2022-07-27T15:44:07.761Z,2.90
2022-07-27T15:46:40.600Z,2.83
2022-07-27T15:49:11.145Z,3.13
2022-07-27T15:51:41.499Z,3.20
2022-07-27T15:54:11.824Z,2.87
2022-07-27T15:56:41.841Z,2.93
2022-07-27T15:59:12.770Z,3.30
2022-07-27T16:01:47.284Z,3.67
2022-07-27T16:04:17.417Z,3.90
2022-07-27T16:06:47.626Z,3.10
2022-07-27T16:09:17.827Z,3.20
2022-07-27T16:11:48.279Z,3.33
2022-07-27T16:14:18.238Z,3.17
2022-07-27T16:16:51.917Z,3.20
2022-07-27T16:19:21.944Z,3.90
2022-07-27T16:21:53.383Z,3.30
2022-07-27T16:24:26.963Z,3.33
2022-07-27T16:26:57.658Z,3.10
2022-07-27T16:29:28.152Z,3.50
2022-07-27T16:32:01.412Z,3.47
2022-07-27T16:34:35.260Z,3.20
2022-07-27T16:37:05.486Z,2.97
2022-07-27T16:39:36.900Z,3.03
2022-07-27T16:42:07.270Z,2.93
2022-07-27T16:44:40.140Z,2.90
2022-07-27T16:47:12.987Z,3.00
2022-07-27T16:49:43.183Z,3.17
2022-07-27T16:52:13.235Z,2.80
2022-07-27T16:54:43.170Z,3.00
2022-07-27T16:57:13.243Z,3.00
2022-07-27T16:59:43.336Z,2.30
2022-07-27T17:02:16.069Z,2.80
2022-07-27T17:04:46.139Z,3.27
2022-07-27T17:07:16.153Z,2.90
2022-07-27T17:09:46.097Z,3.20
2022-07-27T17:12:17.300Z,3.60
2022-07-27T17:14:48.066Z,2.60
2022-07-27T17:17:20.742Z,2.73
2022-07-27T17:19:50.715Z,3.00
2022-07-27T17:22:20.781Z,2.70
2022-07-27T17:24:50.801Z,3.50
2022-07-27T17:27:21.022Z,3.23
2022-07-27T17:29:51.651Z,2.90
2022-07-27T17:32:24.337Z,2.80
2022-07-27T17:34:54.383Z,3.80
2022-07-27T17:37:24.888Z,3.67
2022-07-27T17:39:55.132Z,3.03
2022-07-27T17:42:25.669Z,3.30
2022-07-27T17:44:55.814Z,3.50
2022-07-27T17:47:28.730Z,3.03
2022-07-27T17:49:59.161Z,3.60
2022-07-27T17:52:29.410Z,2.83
2022-07-27T17:54:59.445Z,3.90
2022-07-27T17:57:29.497Z,3.20
2022-07-27T17:59:59.629Z,2.90
2022-07-27T18:02:32.407Z,3.10
2022-07-27T18:05:02.513Z,3.17
2022-07-27T18:07:38.903Z,3.13
2022-07-27T18:10:12.334Z,2.67
2022-07-27T18:12:42.322Z,2.87
2022-07-27T18:15:25.698Z,2.83
2022-07-27T18:17:58.774Z,3.27
2022-07-27T18:20:28.948Z,3.43
2022-07-27T18:22:59.258Z,3.00
2022-07-27T18:25:29.435Z,3.10
2022-07-27T18:27:59.425Z,2.70
2022-07-27T18:30:29.928Z,3.60
2022-07-27T18:33:02.525Z,3.77
2022-07-27T18:35:32.773Z,3.70
2022-07-27T18:38:04.514Z,2.87
2022-07-27T18:40:34.508Z,2.80
2022-07-27T18:43:04.891Z,3.30
2022-07-27T18:45:35.483Z,3.20
2022-07-27T18:48:10.051Z,3.27
2022-07-27T18:50:41.448Z,3.50
2022-07-27T18:53:12.197Z,3.10
2022-07-27T18:55:42.182Z,3.60
2022-07-27T18:58:12.114Z,2.90
2022-07-27T19:00:42.714Z,3.00
2022-07-27T19:03:15.342Z,3.20
2022-07-27T19:05:47.094Z,2.90
2022-07-27T19:08:17.656Z,3.60
2022-07-27T19:10:47.862Z,2.73
2022-07-27T19:13:17.909Z,3.37
2022-07-27T19:15:48.018Z,3.27
2022-07-27T19:18:20.819Z,2.80
2022-07-27T19:20:52.041Z,3.17
2022-07-27T19:23:22.029Z,3.07
2022-07-27T19:25:52.201Z,2.93
2022-07-27T19:28:24.615Z,2.70
2022-07-27T19:30:54.601Z,3.00
2022-07-27T19:33:27.243Z,2.73
2022-07-27T19:35:58.149Z,2.90
2022-07-27T19:38:28.272Z,2.90
2022-07-27T19:40:58.533Z,3.60
2022-07-27T19:43:28.842Z,3.20
2022-07-27T19:45:58.928Z,2.83
2022-07-27T19:48:31.651Z,2.97
2022-07-27T19:51:06.797Z,2.63
2022-07-27T19:53:39.260Z,2.60
2022-07-27T19:56:11.256Z,2.57
2022-07-27T19:58:41.241Z,2.70
2022-07-27T20:01:11.720Z,3.03
2022-07-27T20:03:53.338Z,6.03
2022-07-27T20:06:26.524Z,2.93
2022-07-27T20:08:59.817Z,3.47
2022-07-27T20:11:31.375Z,3.10
2022-07-27T20:14:02.585Z,3.43
2022-07-27T20:16:34.336Z,3.47
2022-07-27T20:19:07.628Z,2.30
2022-07-27T20:21:39.272Z,3.23
2022-07-27T20:24:10.422Z,3.03
2022-07-27T20:26:41.281Z,3.20
2022-07-27T20:29:13.597Z,2.90
2022-07-27T20:31:43.971Z,2.80
2022-07-27T20:34:16.971Z,3.00
2022-07-27T20:36:48.267Z,2.77
2022-07-27T20:39:18.963Z,3.03
2022-07-27T20:41:49.538Z,2.70
2022-07-27T20:44:20.929Z,3.80
2022-07-27T20:46:51.304Z,3.27
2022-07-27T20:49:24.962Z,2.93
2022-07-27T20:51:55.028Z,3.37
2022-07-27T20:54:29.224Z,3.47
2022-07-27T20:56:59.665Z,3.40
2022-07-27T20:59:30.706Z,2.90
2022-07-27T21:02:00.729Z,3.10
2022-07-27T21:04:33.320Z,5.23
2022-07-27T21:07:03.294Z,4.33
2022-07-27T21:09:33.866Z,2.93
2022-07-27T21:12:04.066Z,3.27
2022-07-27T21:14:34.061Z,2.97
2022-07-27T21:17:04.218Z,3.80
2022-07-27T21:19:36.857Z,3.17
2022-07-27T21:22:07.278Z,3.47
2022-07-27T21:24:37.294Z,3.03
2022-07-27T21:27:09.071Z,3.20
2022-07-27T21:29:39.643Z,2.97
2022-07-27T21:32:10.023Z,3.60
2022-07-27T21:34:42.591Z,2.80
2022-07-27T21:37:12.618Z,3.43
2022-07-27T21:39:42.739Z,3.03
2022-07-27T21:42:12.741Z,2.93
2022-07-27T21:44:42.769Z,3.57
2022-07-27T21:47:14.448Z,3.27
2022-07-27T21:49:47.296Z,3.17
2022-07-27T21:52:17.269Z,3.93
2022-07-27T21:54:47.244Z,3.90
2022-07-27T21:57:17.533Z,3.23
2022-07-27T21:59:47.643Z,2.93
2022-07-27T22:02:17.678Z,3.13
2022-07-27T22:04:50.269Z,2.77
2022-07-27T22:07:20.214Z,3.17
2022-07-27T22:09:50.228Z,3.27
2022-07-27T22:12:20.226Z,3.50
2022-07-27T22:14:50.327Z,3.70
2022-07-27T22:17:20.288Z,3.00
2022-07-27T22:19:53.077Z,3.07
2022-07-27T22:22:23.040Z,3.60
2022-07-27T22:24:53.157Z,3.23
2022-07-27T22:27:23.524Z,3.00
2022-07-27T22:29:53.511Z,4.20
2022-07-27T22:32:23.747Z,3.20
2022-07-27T22:34:56.707Z,3.60
2022-07-27T22:37:26.733Z,3.20
2022-07-27T22:39:57.200Z,3.23
2022-07-27T22:42:29.206Z,3.30
2022-07-27T22:44:59.991Z,3.77
2022-07-27T22:47:30.045Z,3.63
2022-07-27T22:50:02.641Z,3.17
2022-07-27T22:52:32.832Z,3.27
2022-07-27T22:55:04.574Z,3.10
2022-07-27T22:57:34.786Z,3.40
2022-07-27T23:00:05.538Z,3.07
2022-07-27T23:02:35.882Z,3.30
2022-07-27T23:05:10.189Z,3.57
2022-07-27T23:07:40.583Z,3.57
2022-07-27T23:10:33.166Z,3.30
2022-07-27T23:13:03.393Z,3.43
2022-07-27T23:15:33.849Z,3.20
2022-07-27T23:18:03.795Z,3.43
2022-07-27T23:20:37.297Z,3.40
2022-07-27T23:23:15.417Z,3.50
2022-07-27T23:25:47.290Z,3.37
2022-07-27T23:28:17.961Z,3.57
2022-07-27T23:30:48.087Z,3.63
2022-07-27T23:33:18.092Z,3.50
2022-07-27T23:35:50.718Z,3.07
2022-07-27T23:38:20.797Z,3.20
2022-07-27T23:40:50.992Z,3.93
2022-07-27T23:43:20.990Z,4.03
2022-07-27T23:45:51.017Z,3.40
2022-07-27T23:48:21.641Z,3.60
2022-07-27T23:50:57.886Z,3.07
2022-07-27T23:53:28.487Z,4.10
2022-07-27T23:55:58.535Z,3.57
2022-07-27T23:58:28.537Z,3.50
